sensor_id;sensor_type;location;lat;lon;timestamp;P1;durP1;ratioP1;P2;durP2;ratioP2
62535;SDS011;63050;47.514;18.920;2023-12-07T00:00:48;5.70;;;4.90;;
62535;SDS011;63050;47.514;18.920;2023-12-07T00:05:49;5.10;;;4.00;;
62535;SDS011;63050;47.514;18.920;2023-12-07T00:10:50;4.70;;;3.90;;
62535;SDS011;63050;47.514;18.920;2023-12-07T00:15:51;5.40;;;4.20;;
62535;SDS011;63050;47.514;18.920;2023-12-07T00:21:16;5.00;;;4.00;;
62535;SDS011;63050;47.514;18.920;2023-12-07T00:26:17;5.30;;;4.10;;
62535;SDS011;63050;47.514;18.920;2023-12-07T00:31:18;4.90;;;4.00;;
62535;SDS011;63050;47.514;18.920;2023-12-07T00:36:20;3.40;;;2.70;;
62535;SDS011;63050;47.514;18.920;2023-12-07T00:41:21;3.50;;;3.00;;
62535;SDS011;63050;47.514;18.920;2023-12-07T00:46:22;2.80;;;2.10;;
62535;SDS011;63050;47.514;18.920;2023-12-07T00:51:23;2.20;;;1.30;;
62535;SDS011;63050;47.514;18.920;2023-12-07T00:56:25;1.20;;;0.90;;
62535;SDS011;63050;47.514;18.920;2023-12-07T01:01:27;1.40;;;0.90;;
62535;SDS011;63050;47.514;18.920;2023-12-07T01:06:28;1.30;;;0.80;;
62535;SDS011;63050;47.514;18.920;2023-12-07T01:11:29;1.30;;;0.90;;
62535;SDS011;63050;47.514;18.920;2023-12-07T01:16:30;1.50;;;0.90;;
62535;SDS011;63050;47.514;18.920;2023-12-07T01:21:32;1.00;;;0.70;;
62535;SDS011;63050;47.514;18.920;2023-12-07T01:26:33;0.80;;;0.70;;
62535;SDS011;63050;47.514;18.920;2023-12-07T01:31:34;1.20;;;0.90;;
62535;SDS011;63050;47.514;18.920;2023-12-07T01:36:34;1.00;;;0.80;;
62535;SDS011;63050;47.514;18.920;2023-12-07T01:41:35;1.20;;;0.90;;
62535;SDS011;63050;47.514;18.920;2023-12-07T01:46:36;1.30;;;1.00;;
62535;SDS011;63050;47.514;18.920;2023-12-07T01:51:37;1.50;;;0.90;;
62535;SDS011;63050;47.514;18.920;2023-12-07T01:56:38;1.60;;;1.00;;
62535;SDS011;63050;47.514;18.920;2023-12-07T02:01:39;1.50;;;1.00;;
62535;SDS011;63050;47.514;18.920;2023-12-07T02:06:39;1.80;;;1.10;;
62535;SDS011;63050;47.514;18.920;2023-12-07T02:11:40;1.40;;;0.80;;
62535;SDS011;63050;47.514;18.920;2023-12-07T02:16:43;1.10;;;0.80;;
62535;SDS011;63050;47.514;18.920;2023-12-07T02:21:58;1.40;;;0.90;;
62535;SDS011;63050;47.514;18.920;2023-12-07T02:27:03;1.20;;;0.90;;
62535;SDS011;63050;47.514;18.920;2023-12-07T02:32:04;1.40;;;0.90;;
62535;SDS011;63050;47.514;18.920;2023-12-07T02:37:05;2.00;;;1.10;;
62535;SDS011;63050;47.514;18.920;2023-12-07T02:42:06;1.00;;;0.90;;
62535;SDS011;63050;47.514;18.920;2023-12-07T02:47:08;1.40;;;0.80;;
62535;SDS011;63050;47.514;18.920;2023-12-07T02:52:09;1.30;;;0.80;;
62535;SDS011;63050;47.514;18.920;2023-12-07T02:57:10;1.10;;;0.80;;
62535;SDS011;63050;47.514;18.920;2023-12-07T03:02:11;1.40;;;1.00;;
62535;SDS011;63050;47.514;18.920;2023-12-07T03:07:11;6.30;;;2.40;;
62535;SDS011;63050;47.514;18.920;2023-12-07T03:12:13;3.60;;;2.20;;
62535;SDS011;63050;47.514;18.920;2023-12-07T03:17:14;6.10;;;3.20;;
62535;SDS011;63050;47.514;18.920;2023-12-07T03:22:15;4.90;;;3.20;;
62535;SDS011;63050;47.514;18.920;2023-12-07T03:27:16;2.80;;;1.70;;
62535;SDS011;63050;47.514;18.920;2023-12-07T03:45:41;1.40;;;1.20;;
62535;SDS011;63050;47.514;18.920;2023-12-07T03:50:42;1.70;;;1.30;;
62535;SDS011;63050;47.514;18.920;2023-12-07T03:55:42;1.70;;;1.40;;
62535;SDS011;63050;47.514;18.920;2023-12-07T04:00:44;1.30;;;1.20;;
62535;SDS011;63050;47.514;18.920;2023-12-07T04:05:44;1.40;;;1.10;;
62535;SDS011;63050;47.514;18.920;2023-12-07T04:10:45;1.90;;;1.30;;
62535;SDS011;63050;47.514;18.920;2023-12-07T04:15:46;1.60;;;1.40;;
62535;SDS011;63050;47.514;18.920;2023-12-07T04:20:47;1.60;;;1.30;;
62535;SDS011;63050;47.514;18.920;2023-12-07T04:25:48;2.00;;;1.30;;
62535;SDS011;63050;47.514;18.920;2023-12-07T04:30:49;1.80;;;1.40;;
62535;SDS011;63050;47.514;18.920;2023-12-07T04:35:50;2.50;;;1.60;;
62535;SDS011;63050;47.514;18.920;2023-12-07T04:40:51;2.00;;;1.40;;
62535;SDS011;63050;47.514;18.920;2023-12-07T04:45:52;2.70;;;1.40;;
62535;SDS011;63050;47.514;18.920;2023-12-07T04:50:53;2.30;;;1.60;;
62535;SDS011;63050;47.514;18.920;2023-12-07T04:55:53;2.00;;;1.20;;
62535;SDS011;63050;47.514;18.920;2023-12-07T05:00:54;1.90;;;1.40;;
62535;SDS011;63050;47.514;18.920;2023-12-07T05:05:56;1.40;;;1.10;;
62535;SDS011;63050;47.514;18.920;2023-12-07T05:10:57;1.60;;;1.10;;
62535;SDS011;63050;47.514;18.920;2023-12-07T05:15:58;1.60;;;1.30;;
62535;SDS011;63050;47.514;18.920;2023-12-07T05:21:00;2.00;;;1.60;;
62535;SDS011;63050;47.514;18.920;2023-12-07T05:26:01;1.80;;;1.20;;
62535;SDS011;63050;47.514;18.920;2023-12-07T05:31:02;1.60;;;1.20;;
62535;SDS011;63050;47.514;18.920;2023-12-07T05:36:03;1.60;;;1.10;;
62535;SDS011;63050;47.514;18.920;2023-12-07T05:41:04;1.80;;;1.30;;
62535;SDS011;63050;47.514;18.920;2023-12-07T05:46:05;1.60;;;1.30;;
62535;SDS011;63050;47.514;18.920;2023-12-07T05:51:06;1.80;;;1.30;;
62535;SDS011;63050;47.514;18.920;2023-12-07T05:56:17;1.70;;;1.20;;
62535;SDS011;63050;47.514;18.920;2023-12-07T06:01:19;1.40;;;1.10;;
62535;SDS011;63050;47.514;18.920;2023-12-07T06:06:20;1.80;;;1.40;;
62535;SDS011;63050;47.514;18.920;2023-12-07T06:11:22;1.90;;;1.30;;
62535;SDS011;63050;47.514;18.920;2023-12-07T06:16:22;2.10;;;1.40;;
62535;SDS011;63050;47.514;18.920;2023-12-07T06:21:23;1.80;;;1.60;;
62535;SDS011;63050;47.514;18.920;2023-12-07T06:26:25;2.20;;;1.50;;
62535;SDS011;63050;47.514;18.920;2023-12-07T06:31:26;1.80;;;1.30;;
62535;SDS011;63050;47.514;18.920;2023-12-07T06:36:27;1.70;;;1.40;;
62535;SDS011;63050;47.514;18.920;2023-12-07T06:41:28;2.10;;;1.70;;
62535;SDS011;63050;47.514;18.920;2023-12-07T06:46:29;2.90;;;1.90;;
62535;SDS011;63050;47.514;18.920;2023-12-07T06:51:30;2.10;;;1.60;;
62535;SDS011;63050;47.514;18.920;2023-12-07T06:56:32;2.50;;;2.00;;
62535;SDS011;63050;47.514;18.920;2023-12-07T07:01:33;4.10;;;2.00;;
62535;SDS011;63050;47.514;18.920;2023-12-07T07:06:34;3.50;;;2.70;;
62535;SDS011;63050;47.514;18.920;2023-12-07T07:11:35;4.90;;;3.50;;
62535;SDS011;63050;47.514;18.920;2023-12-07T07:16:37;2.90;;;2.40;;
62535;SDS011;63050;47.514;18.920;2023-12-07T07:21:38;3.40;;;2.20;;
62535;SDS011;63050;47.514;18.920;2023-12-07T07:26:39;2.30;;;1.80;;
62535;SDS011;63050;47.514;18.920;2023-12-07T07:31:40;2.60;;;2.10;;
62535;SDS011;63050;47.514;18.920;2023-12-07T07:36:41;2.90;;;2.00;;
62535;SDS011;63050;47.514;18.920;2023-12-07T07:41:42;3.40;;;2.50;;
62535;SDS011;63050;47.514;18.920;2023-12-07T07:46:43;3.10;;;2.50;;
62535;SDS011;63050;47.514;18.920;2023-12-07T07:51:44;3.20;;;2.50;;
62535;SDS011;63050;47.514;18.920;2023-12-07T07:56:44;3.10;;;2.50;;
62535;SDS011;63050;47.514;18.920;2023-12-07T08:01:45;4.00;;;2.80;;
62535;SDS011;63050;47.514;18.920;2023-12-07T08:06:47;3.20;;;2.70;;
62535;SDS011;63050;47.514;18.920;2023-12-07T08:11:49;3.10;;;2.30;;
62535;SDS011;63050;47.514;18.920;2023-12-07T08:16:50;3.30;;;2.90;;
62535;SDS011;63050;47.514;18.920;2023-12-07T08:21:51;3.80;;;2.90;;
62535;SDS011;63050;47.514;18.920;2023-12-07T08:26:52;4.10;;;3.30;;
62535;SDS011;63050;47.514;18.920;2023-12-07T08:31:53;4.80;;;4.20;;
62535;SDS011;63050;47.514;18.920;2023-12-07T08:36:54;5.40;;;4.20;;
62535;SDS011;63050;47.514;18.920;2023-12-07T08:41:55;4.70;;;3.90;;
62535;SDS011;63050;47.514;18.920;2023-12-07T08:46:55;8.20;;;7.00;;
62535;SDS011;63050;47.514;18.920;2023-12-07T08:51:56;6.70;;;4.90;;
62535;SDS011;63050;47.514;18.920;2023-12-07T08:56:58;4.20;;;2.50;;
62535;SDS011;63050;47.514;18.920;2023-12-07T09:01:59;6.50;;;5.10;;
62535;SDS011;63050;47.514;18.920;2023-12-07T09:07:00;8.70;;;6.40;;
62535;SDS011;63050;47.514;18.920;2023-12-07T09:12:01;9.60;;;5.70;;
62535;SDS011;63050;47.514;18.920;2023-12-07T09:17:02;8.90;;;5.80;;
62535;SDS011;63050;47.514;18.920;2023-12-07T09:22:03;11.50;;;8.80;;
62535;SDS011;63050;47.514;18.920;2023-12-07T09:27:04;13.40;;;10.70;;
62535;SDS011;63050;47.514;18.920;2023-12-07T09:32:06;7.80;;;6.90;;
62535;SDS011;63050;47.514;18.920;2023-12-07T09:37:10;6.70;;;4.90;;
62535;SDS011;63050;47.514;18.920;2023-12-07T09:42:12;6.60;;;4.50;;
62535;SDS011;63050;47.514;18.920;2023-12-07T09:47:13;3.20;;;2.30;;
62535;SDS011;63050;47.514;18.920;2023-12-07T09:52:14;4.00;;;3.00;;
62535;SDS011;63050;47.514;18.920;2023-12-07T09:57:15;4.70;;;4.00;;
62535;SDS011;63050;47.514;18.920;2023-12-07T10:02:16;7.10;;;4.80;;
62535;SDS011;63050;47.514;18.920;2023-12-07T10:07:18;4.50;;;3.50;;
62535;SDS011;63050;47.514;18.920;2023-12-07T10:12:34;5.90;;;4.50;;
62535;SDS011;63050;47.514;18.920;2023-12-07T10:23:06;5.20;;;4.00;;
62535;SDS011;63050;47.514;18.920;2023-12-07T10:28:08;3.30;;;2.90;;
62535;SDS011;63050;47.514;18.920;2023-12-07T10:33:11;3.70;;;3.00;;
62535;SDS011;63050;47.514;18.920;2023-12-07T10:38:14;3.60;;;2.40;;
62535;SDS011;63050;47.514;18.920;2023-12-07T10:43:14;3.10;;;2.50;;
62535;SDS011;63050;47.514;18.920;2023-12-07T10:48:16;3.40;;;2.90;;
62535;SDS011;63050;47.514;18.920;2023-12-07T10:53:19;3.50;;;2.80;;
62535;SDS011;63050;47.514;18.920;2023-12-07T10:58:22;3.90;;;2.90;;
62535;SDS011;63050;47.514;18.920;2023-12-07T11:03:25;3.60;;;2.90;;
62535;SDS011;63050;47.514;18.920;2023-12-07T11:13:30;4.70;;;3.60;;
62535;SDS011;63050;47.514;18.920;2023-12-07T11:18:33;4.60;;;3.80;;
62535;SDS011;63050;47.514;18.920;2023-12-07T11:23:34;4.40;;;3.70;;
62535;SDS011;63050;47.514;18.920;2023-12-07T11:28:37;5.50;;;4.00;;
62535;SDS011;63050;47.514;18.920;2023-12-07T11:33:39;5.40;;;4.20;;
62535;SDS011;63050;47.514;18.920;2023-12-07T11:44:01;6.20;;;5.10;;
62535;SDS011;63050;47.514;18.920;2023-12-07T11:49:03;6.30;;;4.90;;
62535;SDS011;63050;47.514;18.920;2023-12-07T11:54:05;6.60;;;5.30;;
62535;SDS011;63050;47.514;18.920;2023-12-07T11:59:08;6.20;;;5.60;;
62535;SDS011;63050;47.514;18.920;2023-12-07T12:04:10;7.40;;;6.40;;
62535;SDS011;63050;47.514;18.920;2023-12-07T12:09:14;8.30;;;6.80;;
62535;SDS011;63050;47.514;18.920;2023-12-07T12:14:18;7.40;;;6.30;;
62535;SDS011;63050;47.514;18.920;2023-12-07T12:19:19;9.10;;;7.00;;
62535;SDS011;63050;47.514;18.920;2023-12-07T12:24:20;12.30;;;8.50;;
62535;SDS011;63050;47.514;18.920;2023-12-07T12:29:21;7.90;;;6.40;;
62535;SDS011;63050;47.514;18.920;2023-12-07T12:34:23;12.80;;;9.10;;
62535;SDS011;63050;47.514;18.920;2023-12-07T12:39:28;7.80;;;6.80;;
62535;SDS011;63050;47.514;18.920;2023-12-07T12:44:30;6.80;;;5.40;;
62535;SDS011;63050;47.514;18.920;2023-12-07T12:49:35;6.60;;;4.90;;
62535;SDS011;63050;47.514;18.920;2023-12-07T12:54:37;6.10;;;5.10;;
62535;SDS011;63050;47.514;18.920;2023-12-07T12:59:38;7.30;;;5.40;;
62535;SDS011;63050;47.514;18.920;2023-12-07T13:04:39;7.60;;;5.50;;
62535;SDS011;63050;47.514;18.920;2023-12-07T13:09:40;7.90;;;6.20;;
62535;SDS011;63050;47.514;18.920;2023-12-07T13:14:43;7.60;;;5.50;;
62535;SDS011;63050;47.514;18.920;2023-12-07T13:19:44;7.30;;;6.00;;
62535;SDS011;63050;47.514;18.920;2023-12-07T13:24:47;7.70;;;5.70;;
62535;SDS011;63050;47.514;18.920;2023-12-07T13:29:48;7.30;;;6.10;;
62535;SDS011;63050;47.514;18.920;2023-12-07T13:34:50;8.10;;;5.80;;
62535;SDS011;63050;47.514;18.920;2023-12-07T13:39:51;10.40;;;6.70;;
62535;SDS011;63050;47.514;18.920;2023-12-07T13:50:00;10.70;;;7.00;;
62535;SDS011;63050;47.514;18.920;2023-12-07T13:55:02;9.80;;;6.70;;
62535;SDS011;63050;47.514;18.920;2023-12-07T14:00:03;9.50;;;7.40;;
62535;SDS011;63050;47.514;18.920;2023-12-07T14:05:05;10.40;;;7.40;;
62535;SDS011;63050;47.514;18.920;2023-12-07T14:10:07;9.10;;;7.20;;
62535;SDS011;63050;47.514;18.920;2023-12-07T14:15:08;9.20;;;6.90;;
62535;SDS011;63050;47.514;18.920;2023-12-07T14:20:10;9.20;;;7.30;;
62535;SDS011;63050;47.514;18.920;2023-12-07T14:25:12;9.20;;;7.30;;
62535;SDS011;63050;47.514;18.920;2023-12-07T14:30:13;11.60;;;7.90;;
62535;SDS011;63050;47.514;18.920;2023-12-07T14:35:14;11.10;;;7.60;;
62535;SDS011;63050;47.514;18.920;2023-12-07T14:40:16;11.70;;;8.40;;
62535;SDS011;63050;47.514;18.920;2023-12-07T14:45:17;11.60;;;8.10;;
62535;SDS011;63050;47.514;18.920;2023-12-07T14:50:20;13.50;;;10.10;;
62535;SDS011;63050;47.514;18.920;2023-12-07T14:55:21;12.10;;;10.10;;
62535;SDS011;63050;47.514;18.920;2023-12-07T15:00:22;12.30;;;10.20;;
62535;SDS011;63050;47.514;18.920;2023-12-07T15:05:23;14.40;;;10.00;;
62535;SDS011;63050;47.514;18.920;2023-12-07T15:10:24;11.30;;;8.70;;
62535;SDS011;63050;47.514;18.920;2023-12-07T15:15:25;11.70;;;9.10;;
62535;SDS011;63050;47.514;18.920;2023-12-07T15:20:25;11.00;;;8.50;;
62535;SDS011;63050;47.514;18.920;2023-12-07T15:25:27;11.70;;;8.70;;
62535;SDS011;63050;47.514;18.920;2023-12-07T15:30:27;11.80;;;8.90;;
62535;SDS011;63050;47.514;18.920;2023-12-07T15:35:30;11.90;;;8.80;;
62535;SDS011;63050;47.514;18.920;2023-12-07T15:40:30;11.20;;;9.00;;
62535;SDS011;63050;47.514;18.920;2023-12-07T15:45:31;11.80;;;9.00;;
62535;SDS011;63050;47.514;18.920;2023-12-07T15:50:32;12.80;;;9.20;;
62535;SDS011;63050;47.514;18.920;2023-12-07T15:55:33;13.60;;;9.90;;
62535;SDS011;63050;47.514;18.920;2023-12-07T16:00:34;14.90;;;9.50;;
62535;SDS011;63050;47.514;18.920;2023-12-07T16:05:35;13.80;;;10.00;;
62535;SDS011;63050;47.514;18.920;2023-12-07T16:10:36;16.00;;;11.20;;
62535;SDS011;63050;47.514;18.920;2023-12-07T16:15:37;15.90;;;11.30;;
62535;SDS011;63050;47.514;18.920;2023-12-07T16:20:38;16.40;;;11.50;;
62535;SDS011;63050;47.514;18.920;2023-12-07T16:25:39;20.10;;;13.30;;
62535;SDS011;63050;47.514;18.920;2023-12-07T16:30:40;21.70;;;12.70;;
62535;SDS011;63050;47.514;18.920;2023-12-07T16:35:40;17.70;;;12.70;;
62535;SDS011;63050;47.514;18.920;2023-12-07T16:40:42;18.00;;;13.00;;
62535;SDS011;63050;47.514;18.920;2023-12-07T16:45:43;18.60;;;13.60;;
62535;SDS011;63050;47.514;18.920;2023-12-07T16:50:46;20.00;;;13.30;;
62535;SDS011;63050;47.514;18.920;2023-12-07T16:55:49;21.30;;;13.70;;
62535;SDS011;63050;47.514;18.920;2023-12-07T17:00:49;17.70;;;11.80;;
62535;SDS011;63050;47.514;18.920;2023-12-07T17:05:50;20.00;;;13.10;;
62535;SDS011;63050;47.514;18.920;2023-12-07T17:10:51;19.00;;;13.00;;
62535;SDS011;63050;47.514;18.920;2023-12-07T17:15:52;21.30;;;14.80;;
62535;SDS011;63050;47.514;18.920;2023-12-07T17:20:52;23.40;;;13.80;;
62535;SDS011;63050;47.514;18.920;2023-12-07T17:25:54;22.90;;;15.30;;
62535;SDS011;63050;47.514;18.920;2023-12-07T17:31:19;23.30;;;15.20;;
62535;SDS011;63050;47.514;18.920;2023-12-07T17:36:20;23.50;;;16.00;;
62535;SDS011;63050;47.514;18.920;2023-12-07T17:41:21;21.60;;;14.00;;
62535;SDS011;63050;47.514;18.920;2023-12-07T17:46:22;23.10;;;15.70;;
62535;SDS011;63050;47.514;18.920;2023-12-07T17:51:23;22.00;;;15.20;;
62535;SDS011;63050;47.514;18.920;2023-12-07T17:56:25;29.20;;;15.90;;
62535;SDS011;63050;47.514;18.920;2023-12-07T18:01:26;25.80;;;16.20;;
62535;SDS011;63050;47.514;18.920;2023-12-07T18:06:27;25.40;;;15.70;;
62535;SDS011;63050;47.514;18.920;2023-12-07T18:11:28;26.00;;;15.00;;
62535;SDS011;63050;47.514;18.920;2023-12-07T18:16:29;27.00;;;18.00;;
62535;SDS011;63050;47.514;18.920;2023-12-07T18:21:30;26.40;;;17.30;;
62535;SDS011;63050;47.514;18.920;2023-12-07T18:26:31;29.10;;;17.60;;
62535;SDS011;63050;47.514;18.920;2023-12-07T18:31:35;25.80;;;16.50;;
62535;SDS011;63050;47.514;18.920;2023-12-07T18:36:36;28.60;;;16.60;;
62535;SDS011;63050;47.514;18.920;2023-12-07T18:41:36;26.30;;;16.30;;
62535;SDS011;63050;47.514;18.920;2023-12-07T18:46:37;25.30;;;16.20;;
62535;SDS011;63050;47.514;18.920;2023-12-07T18:51:38;28.80;;;16.30;;
62535;SDS011;63050;47.514;18.920;2023-12-07T18:56:39;27.30;;;17.10;;
62535;SDS011;63050;47.514;18.920;2023-12-07T19:01:40;29.10;;;16.90;;
62535;SDS011;63050;47.514;18.920;2023-12-07T19:06:40;28.50;;;18.20;;
62535;SDS011;63050;47.514;18.920;2023-12-07T19:11:41;25.60;;;16.80;;
62535;SDS011;63050;47.514;18.920;2023-12-07T19:16:45;30.70;;;18.30;;
62535;SDS011;63050;47.514;18.920;2023-12-07T19:21:46;31.50;;;18.00;;
62535;SDS011;63050;47.514;18.920;2023-12-07T19:26:51;26.50;;;16.30;;
62535;SDS011;63050;47.514;18.920;2023-12-07T19:31:51;28.80;;;17.60;;
62535;SDS011;63050;47.514;18.920;2023-12-07T19:36:53;30.80;;;18.60;;
62535;SDS011;63050;47.514;18.920;2023-12-07T19:41:54;31.70;;;19.90;;
62535;SDS011;63050;47.514;18.920;2023-12-07T19:46:55;30.10;;;18.40;;
62535;SDS011;63050;47.514;18.920;2023-12-07T19:51:56;27.30;;;18.10;;
62535;SDS011;63050;47.514;18.920;2023-12-07T19:56:57;31.30;;;17.80;;
62535;SDS011;63050;47.514;18.920;2023-12-07T20:01:58;27.60;;;17.10;;
62535;SDS011;63050;47.514;18.920;2023-12-07T20:06:59;30.90;;;19.10;;
62535;SDS011;63050;47.514;18.920;2023-12-07T20:12:00;26.50;;;15.10;;
62535;SDS011;63050;47.514;18.920;2023-12-07T20:17:01;30.30;;;18.70;;
62535;SDS011;63050;47.514;18.920;2023-12-07T20:22:02;30.00;;;19.00;;
62535;SDS011;63050;47.514;18.920;2023-12-07T20:27:10;29.70;;;20.10;;
62535;SDS011;63050;47.514;18.920;2023-12-07T20:32:11;23.70;;;15.40;;
62535;SDS011;63050;47.514;18.920;2023-12-07T20:37:12;29.60;;;17.70;;
62535;SDS011;63050;47.514;18.920;2023-12-07T20:42:13;25.70;;;16.30;;
62535;SDS011;63050;47.514;18.920;2023-12-07T20:47:14;24.60;;;17.00;;
62535;SDS011;63050;47.514;18.920;2023-12-07T20:52:15;29.90;;;18.10;;
62535;SDS011;63050;47.514;18.920;2023-12-07T20:57:16;26.80;;;17.10;;
62535;SDS011;63050;47.514;18.920;2023-12-07T21:02:19;27.20;;;17.40;;
62535;SDS011;63050;47.514;18.920;2023-12-07T21:07:20;25.90;;;16.30;;
62535;SDS011;63050;47.514;18.920;2023-12-07T21:12:21;20.50;;;13.20;;
62535;SDS011;63050;47.514;18.920;2023-12-07T21:17:22;22.40;;;13.90;;
62535;SDS011;63050;47.514;18.920;2023-12-07T21:22:23;21.00;;;13.20;;
62535;SDS011;63050;47.514;18.920;2023-12-07T21:27:24;21.90;;;13.50;;
62535;SDS011;63050;47.514;18.920;2023-12-07T21:32:25;25.60;;;15.40;;
62535;SDS011;63050;47.514;18.920;2023-12-07T21:37:26;24.60;;;13.80;;
62535;SDS011;63050;47.514;18.920;2023-12-07T21:42:27;23.00;;;13.90;;
62535;SDS011;63050;47.514;18.920;2023-12-07T21:47:29;23.90;;;15.20;;
62535;SDS011;63050;47.514;18.920;2023-12-07T21:52:30;26.70;;;15.60;;
62535;SDS011;63050;47.514;18.920;2023-12-07T21:57:31;27.80;;;15.80;;
62535;SDS011;63050;47.514;18.920;2023-12-07T22:02:31;22.90;;;14.40;;
62535;SDS011;63050;47.514;18.920;2023-12-07T22:07:32;28.20;;;17.50;;
62535;SDS011;63050;47.514;18.920;2023-12-07T22:12:33;29.60;;;17.50;;
62535;SDS011;63050;47.514;18.920;2023-12-07T22:17:34;32.70;;;19.50;;
62535;SDS011;63050;47.514;18.920;2023-12-07T22:22:36;29.10;;;17.60;;
62535;SDS011;63050;47.514;18.920;2023-12-07T22:27:38;28.10;;;18.00;;
62535;SDS011;63050;47.514;18.920;2023-12-07T22:32:39;32.70;;;17.50;;
62535;SDS011;63050;47.514;18.920;2023-12-07T22:37:39;29.40;;;17.30;;
62535;SDS011;63050;47.514;18.920;2023-12-07T22:42:40;32.10;;;18.90;;
62535;SDS011;63050;47.514;18.920;2023-12-07T22:47:41;31.10;;;18.10;;
62535;SDS011;63050;47.514;18.920;2023-12-07T22:52:42;19.40;;;11.80;;
62535;SDS011;63050;47.514;18.920;2023-12-07T22:57:43;14.00;;;9.40;;
62535;SDS011;63050;47.514;18.920;2023-12-07T23:02:44;12.00;;;9.60;;
62535;SDS011;63050;47.514;18.920;2023-12-07T23:07:45;10.00;;;7.70;;
62535;SDS011;63050;47.514;18.920;2023-12-07T23:12:46;11.30;;;8.10;;
62535;SDS011;63050;47.514;18.920;2023-12-07T23:17:47;12.10;;;8.70;;
62535;SDS011;63050;47.514;18.920;2023-12-07T23:22:48;11.30;;;8.50;;
62535;SDS011;63050;47.514;18.920;2023-12-07T23:27:49;12.30;;;9.00;;
62535;SDS011;63050;47.514;18.920;2023-12-07T23:32:50;11.80;;;8.40;;
62535;SDS011;63050;47.514;18.920;2023-12-07T23:37:51;14.50;;;9.30;;
62535;SDS011;63050;47.514;18.920;2023-12-07T23:42:52;13.10;;;9.50;;
62535;SDS011;63050;47.514;18.920;2023-12-07T23:47:53;10.70;;;8.10;;
62535;SDS011;63050;47.514;18.920;2023-12-07T23:52:54;11.60;;;7.70;;
62535;SDS011;63050;47.514;18.920;2023-12-07T23:57:55;9.90;;;7.90;;
